Time;durP1;ratioP1;P1;durP2;ratioP2;P2;SDS_P1;SDS_P2;PMS_P1;PMS_P2;Temp;Humidity;BMP_temperature;BMP_pressure;BME280_temperature;BME280_humidity;BME280_pressure;Samples;Min_cycle;Max_cycle;Signal;HPM_P1;HPM_P2
2022/08/06 00:01:41;;;;;;;;;;;11.80;99.40;;;;;;5086603;28;20037;-60
2022/08/06 00:04:06;;;;;;;;;;;11.80;99.30;;;;;;5081020;28;19924;-60
2022/08/06 00:06:32;;;;;;;;;;;11.70;99.10;;;;;;5086141;28;19924;-59
2022/08/06 00:08:57;;;;;;;;;;;11.70;99.40;;;;;;5087089;28;19920;-60
2022/08/06 00:11:23;;;;;;;;;;;11.70;99.80;;;;;;5083339;28;19924;-59
2022/08/06 00:13:48;;;;;;;;;;;11.60;99.80;;;;;;5088496;28;19924;-59
2022/08/06 00:16:14;;;;;;;;;;;11.60;99.90;;;;;;5088193;28;19932;-60
2022/08/06 00:18:39;;;;;;;;;;;11.70;99.90;;;;;;5078248;28;19946;-59
2022/08/06 00:21:05;;;;;;;;;;;11.60;99.90;;;;;;5085957;28;19924;-59
2022/08/06 00:23:30;;;;;;;;;;;11.70;99.90;;;;;;5085233;28;20450;-59
2022/08/06 00:25:56;;;;;;;;;;;11.60;99.90;;;;;;5080646;28;19923;-60
2022/08/06 00:28:22;;;;;;;;;;;11.60;99.90;;;;;;5083414;28;19924;-61
2022/08/06 00:30:48;;;;;;;;;;;11.60;99.90;;;;;;5087785;28;19927;-60
2022/08/06 00:33:13;;;;;;;;;;;11.70;99.90;;;;;;5087499;28;19920;-60
2022/08/06 00:35:39;;;;;;;;;;;11.70;99.90;;;;;;5091687;28;19933;-60
2022/08/06 00:38:04;;;;;;;;;;;11.70;99.90;;;;;;5084262;28;19967;-59
2022/08/06 00:40:30;;;;;;;;;;;11.60;99.90;;;;;;5118980;28;19928;-60
2022/08/06 00:43:00;;;;;;;;;;;11.70;99.90;;;;;;5085933;28;19974;-60
2022/08/06 00:45:25;;;;;;;;;;;11.70;99.90;;;;;;5086461;28;20259;-59
2022/08/06 00:47:52;;;;;;;;;;;11.70;99.90;;;;;;5085560;28;19924;-59
2022/08/06 00:50:17;;;;;;;;;;;11.70;99.90;;;;;;5084242;28;19924;-61
2022/08/06 00:52:45;;;;;;;;;;;11.60;99.90;;;;;;5085419;28;19920;-59
2022/08/06 00:55:11;;;;;;;;;;;11.50;99.90;;;;;;5088979;28;19928;-60
2022/08/06 00:57:37;;;;;;;;;;;11.50;99.90;;;;;;5085450;28;19936;-60
2022/08/06 01:00:03;;;;;;;;;;;11.50;99.90;;;;;;5081762;28;19920;-60
2022/08/06 01:02:28;;;;;;;;;;;11.40;99.90;;;;;;5083043;28;19920;-59
2022/08/06 01:04:54;;;;;;;;;;;11.40;99.90;;;;;;5082718;28;20340;-59
2022/08/06 01:07:19;;;;;;;;;;;11.40;99.90;;;;;;5088710;28;19921;-59
2022/08/06 01:09:45;;;;;;;;;;;11.40;99.90;;;;;;5091375;28;19927;-59
2022/08/06 01:12:10;;;;;;;;;;;11.40;99.90;;;;;;5091380;28;19928;-60
2022/08/06 01:14:35;;;;;;;;;;;11.30;99.90;;;;;;5087813;28;19928;-59
2022/08/06 01:17:03;;;;;;;;;;;11.30;99.90;;;;;;5084733;28;20485;-60
2022/08/06 01:19:44;;;;;;;;;;;11.20;99.90;;;;;;5089511;28;19986;-59
2022/08/06 01:22:21;;;;;;;;;;;11.20;99.90;;;;;;5088114;28;19920;-59
2022/08/06 01:24:56;;;;;;;;;;;11.20;99.90;;;;;;5083503;28;19920;-60
2022/08/06 01:27:31;;;;;;;;;;;11.20;99.90;;;;;;5091742;28;19924;-59
2022/08/06 01:30:00;;;;;;;;;;;11.20;99.90;;;;;;5086529;28;19974;-60
2022/08/06 01:32:31;;;;;;;;;;;11.20;99.90;;;;;;5086873;28;20355;-60
2022/08/06 01:35:05;;;;;;;;;;;11.20;99.90;;;;;;5084896;28;19932;-60
2022/08/06 01:37:37;;;;;;;;;;;11.30;99.90;;;;;;5085285;28;19927;-60
2022/08/06 01:40:06;;;;;;;;;;;11.20;99.90;;;;;;5091091;28;19920;-59
2022/08/06 01:42:32;;;;;;;;;;;11.10;99.90;;;;;;5083073;28;20012;-59
2022/08/06 01:45:02;;;;;;;;;;;11.00;99.90;;;;;;5120057;27;20024;-59
2022/08/06 01:47:29;;;;;;;;;;;11.00;99.90;;;;;;5085321;28;19927;-60
2022/08/06 01:49:57;;;;;;;;;;;11.00;99.90;;;;;;5089220;28;19927;-59
2022/08/06 01:52:23;;;;;;;;;;;11.00;99.90;;;;;;5084442;28;20305;-59
2022/08/06 01:54:50;;;;;;;;;;;11.10;99.90;;;;;;5084373;28;19924;-60
2022/08/06 01:57:17;;;;;;;;;;;11.10;99.90;;;;;;5080375;28;19924;-60
2022/08/06 01:59:45;;;;;;;;;;;11.10;99.90;;;;;;5090215;28;20367;-59
2022/08/06 02:02:12;;;;;;;;;;;11.10;99.90;;;;;;5086679;28;20011;-59
2022/08/06 02:04:40;;;;;;;;;;;11.10;99.90;;;;;;5084794;28;19927;-60
2022/08/06 02:07:08;;;;;;;;;;;11.10;99.90;;;;;;5086853;28;19924;-60
2022/08/06 02:09:34;;;;;;;;;;;11.10;99.90;;;;;;5091883;28;19962;-59
2022/08/06 02:12:02;;;;;;;;;;;11.10;99.90;;;;;;5088695;28;20582;-59
2022/08/06 02:14:29;;;;;;;;;;;11.20;99.90;;;;;;5082292;28;19920;-59
2022/08/06 02:16:55;;;;;;;;;;;11.20;99.90;;;;;;5087216;28;19921;-59
2022/08/06 02:19:21;;;;;;;;;;;11.10;99.90;;;;;;5085607;28;19931;-59
2022/08/06 02:21:47;;;;;;;;;;;11.20;99.90;;;;;;5088785;28;19920;-60
2022/08/06 02:24:13;;;;;;;;;;;11.20;99.90;;;;;;5087932;28;19993;-59
2022/08/06 02:26:39;;;;;;;;;;;11.20;99.90;;;;;;5083984;28;20879;-60
2022/08/06 02:29:06;;;;;;;;;;;11.20;99.90;;;;;;5091461;28;19924;-59
2022/08/06 02:31:32;;;;;;;;;;;11.30;99.90;;;;;;5088169;28;19977;-59
2022/08/06 02:33:58;;;;;;;;;;;11.20;99.90;;;;;;5084915;28;19920;-59
2022/08/06 02:36:25;;;;;;;;;;;11.20;99.90;;;;;;5100142;28;19924;-60
2022/08/06 02:38:54;;;;;;;;;;;11.20;99.90;;;;;;5088341;28;20289;-60
2022/08/06 02:41:31;;;;;;;;;;;11.20;99.90;;;;;;5091397;28;19928;-59
2022/08/06 02:44:02;;;;;;;;;;;11.10;99.90;;;;;;5086924;28;19943;-60
2022/08/06 02:46:31;;;;;;;;;;;11.10;99.90;;;;;;5086881;28;19974;-60
2022/08/06 02:48:59;;;;;;;;;;;11.10;99.90;;;;;;5074436;28;20264;-60
2022/08/06 02:51:27;;;;;;;;;;;11.10;99.90;;;;;;5084113;28;19974;-60
2022/08/06 02:54:06;;;;;;;;;;;11.10;99.90;;;;;;5088709;28;19920;-60
2022/08/06 02:56:33;;;;;;;;;;;11.10;99.90;;;;;;5079762;28;19929;-58
2022/08/06 02:58:59;;;;;;;;;;;11.10;99.90;;;;;;5090500;28;19924;-60
2022/08/06 03:01:30;;;;;;;;;;;11.00;99.90;;;;;;5088880;28;20367;-60
2022/08/06 03:03:57;;;;;;;;;;;11.00;99.90;;;;;;5083217;28;19924;-60
2022/08/06 03:06:24;;;;;;;;;;;11.00;99.90;;;;;;5085218;28;19924;-60
2022/08/06 03:08:51;;;;;;;;;;;11.00;99.90;;;;;;5086583;28;19924;-60
2022/08/06 03:11:16;;;;;;;;;;;11.00;99.90;;;;;;5090567;28;19946;-60
2022/08/06 03:13:43;;;;;;;;;;;11.00;99.90;;;;;;5088788;28;20271;-62
2022/08/06 03:16:09;;;;;;;;;;;11.00;99.90;;;;;;5087258;28;19924;-59
2022/08/06 03:18:35;;;;;;;;;;;11.00;99.90;;;;;;5089144;28;19966;-59
2022/08/06 03:21:01;;;;;;;;;;;11.00;99.90;;;;;;5087322;28;19931;-59
2022/08/06 03:23:28;;;;;;;;;;;11.00;99.90;;;;;;5085911;28;19920;-59
2022/08/06 03:25:55;;;;;;;;;;;11.00;99.90;;;;;;5086651;28;20287;-60
2022/08/06 03:28:21;;;;;;;;;;;11.00;99.90;;;;;;5084069;28;20466;-59
2022/08/06 03:30:47;;;;;;;;;;;11.00;99.90;;;;;;5088401;28;19924;-59
2022/08/06 03:33:14;;;;;;;;;;;11.00;99.90;;;;;;5087289;28;20002;-59
2022/08/06 03:35:40;;;;;;;;;;;11.00;99.90;;;;;;5078809;28;19924;-59
2022/08/06 03:38:07;;;;;;;;;;;11.00;99.90;;;;;;5085906;28;19920;-59
2022/08/06 03:40:33;;;;;;;;;;;11.00;99.90;;;;;;5087121;28;19920;-60
2022/08/06 03:42:59;;;;;;;;;;;10.90;99.90;;;;;;5089918;28;19977;-59
2022/08/06 03:45:25;;;;;;;;;;;10.90;99.90;;;;;;5085895;28;20304;-60
2022/08/06 03:47:52;;;;;;;;;;;11.00;99.90;;;;;;5086184;28;19924;-60
2022/08/06 03:50:20;;;;;;;;;;;11.00;99.90;;;;;;5085684;28;19924;-59
2022/08/06 03:52:47;;;;;;;;;;;11.00;99.90;;;;;;5082027;28;19920;-60
2022/08/06 03:55:15;;;;;;;;;;;11.00;99.90;;;;;;5084704;28;19971;-60
2022/08/06 03:57:43;;;;;;;;;;;11.00;99.90;;;;;;5085242;28;19951;-59
2022/08/06 04:00:10;;;;;;;;;;;11.00;99.90;;;;;;5088933;28;19966;-59
2022/08/06 04:02:52;;;;;;;;;;;11.00;99.90;;;;;;5089537;28;20027;-59
2022/08/06 04:05:19;;;;;;;;;;;11.10;99.90;;;;;;5082675;28;19943;-60
2022/08/06 04:07:46;;;;;;;;;;;11.00;99.90;;;;;;5086186;28;19920;-62
2022/08/06 04:10:11;;;;;;;;;;;11.00;99.90;;;;;;5083634;28;20252;-63
2022/08/06 04:12:37;;;;;;;;;;;11.00;99.90;;;;;;5069751;28;19927;-61
2022/08/06 04:15:04;;;;;;;;;;;11.00;99.90;;;;;;5086706;28;19970;-60
2022/08/06 04:17:30;;;;;;;;;;;11.00;99.90;;;;;;5088594;28;20257;-59
2022/08/06 04:19:56;;;;;;;;;;;11.00;99.90;;;;;;5085767;28;19935;-60
2022/08/06 04:22:21;;;;;;;;;;;11.00;99.90;;;;;;5087323;28;20404;-60
2022/08/06 04:24:47;;;;;;;;;;;11.00;99.90;;;;;;5082244;28;19928;-60
2022/08/06 04:27:13;;;;;;;;;;;11.00;99.90;;;;;;5082590;28;19928;-60
2022/08/06 04:29:40;;;;;;;;;;;11.00;99.90;;;;;;5087726;28;20609;-60
2022/08/06 04:32:06;;;;;;;;;;;11.00;99.90;;;;;;5088321;28;20308;-59
2022/08/06 04:34:32;;;;;;;;;;;11.00;99.90;;;;;;5084848;28;20011;-60
2022/08/06 04:36:58;;;;;;;;;;;11.00;99.90;;;;;;5081202;28;20015;-60
2022/08/06 04:39:24;;;;;;;;;;;10.90;99.90;;;;;;5090013;28;19920;-59
2022/08/06 04:41:50;;;;;;;;;;;11.00;99.90;;;;;;5082482;28;19969;-59
2022/08/06 04:44:16;;;;;;;;;;;11.00;99.90;;;;;;5086419;28;19927;-59
2022/08/06 04:46:43;;;;;;;;;;;11.00;99.90;;;;;;5089685;28;19927;-59
2022/08/06 04:49:08;;;;;;;;;;;11.10;99.90;;;;;;5090832;28;19924;-60
2022/08/06 04:51:34;;;;;;;;;;;11.10;99.90;;;;;;5091949;28;19920;-60
2022/08/06 04:54:03;;;;;;;;;;;11.20;99.90;;;;;;5088534;28;20372;-60
2022/08/06 04:56:28;;;;;;;;;;;11.20;99.90;;;;;;5092167;28;19963;-60
2022/08/06 04:58:54;;;;;;;;;;;11.30;99.90;;;;;;5081501;28;20363;-60
2022/08/06 05:01:19;;;;;;;;;;;11.30;99.90;;;;;;5083928;28;19959;-60
2022/08/06 05:03:45;;;;;;;;;;;11.40;99.90;;;;;;5089174;28;19946;-60
2022/08/06 05:06:24;;;;;;;;;;;11.50;99.90;;;;;;5087346;28;19924;-60
2022/08/06 05:08:53;;;;;;;;;;;11.50;99.90;;;;;;5089435;28;19920;-61
2022/08/06 05:11:21;;;;;;;;;;;11.50;99.90;;;;;;5091093;28;20080;-59
2022/08/06 05:13:47;;;;;;;;;;;11.60;99.90;;;;;;5066769;28;19920;-60
2022/08/06 05:16:14;;;;;;;;;;;11.70;99.90;;;;;;5087775;28;20454;-60
2022/08/06 05:18:42;;;;;;;;;;;11.80;99.90;;;;;;5089950;28;19973;-60
2022/08/06 05:21:09;;;;;;;;;;;11.90;99.90;;;;;;5089392;28;19924;-60
2022/08/06 05:23:34;;;;;;;;;;;12.00;99.90;;;;;;5090411;28;19927;-60
2022/08/06 05:26:00;;;;;;;;;;;12.10;99.90;;;;;;5088278;28;19920;-61
2022/08/06 05:28:25;;;;;;;;;;;12.20;99.90;;;;;;5091463;28;19920;-60
2022/08/06 05:30:51;;;;;;;;;;;12.20;99.90;;;;;;5088277;28;19974;-60
2022/08/06 05:33:33;;;;;;;;;;;12.30;99.90;;;;;;5087894;28;19932;-59
2022/08/06 05:35:59;;;;;;;;;;;12.40;99.90;;;;;;5082475;28;19924;-60
2022/08/06 05:38:26;;;;;;;;;;;12.60;99.90;;;;;;5087300;28;20256;-60
2022/08/06 05:40:55;;;;;;;;;;;12.80;99.90;;;;;;5087529;28;19990;-61
2022/08/06 05:43:21;;;;;;;;;;;12.90;99.90;;;;;;5073954;28;19928;-61
2022/08/06 05:45:47;;;;;;;;;;;13.00;99.90;;;;;;5086314;28;19920;-60
2022/08/06 05:48:13;;;;;;;;;;;13.10;99.90;;;;;;5082560;28;20014;-61
2022/08/06 05:50:41;;;;;;;;;;;13.20;99.90;;;;;;5073671;28;19924;-61
2022/08/06 05:53:16;;;;;;;;;;;13.40;99.90;;;;;;5090656;28;20019;-60
2022/08/06 05:55:45;;;;;;;;;;;13.40;99.90;;;;;;5087877;28;19924;-60
2022/08/06 05:58:13;;;;;;;;;;;13.50;99.90;;;;;;5091815;28;19974;-61
2022/08/06 06:00:40;;;;;;;;;;;13.70;99.90;;;;;;5088829;28;19927;-59
2022/08/06 06:03:07;;;;;;;;;;;13.70;99.90;;;;;;5078595;28;19924;-61
2022/08/06 06:05:34;;;;;;;;;;;13.70;99.90;;;;;;5087487;28;20018;-61
2022/08/06 06:08:00;;;;;;;;;;;13.80;99.90;;;;;;5088922;28;20371;-60
2022/08/06 06:10:26;;;;;;;;;;;13.90;99.70;;;;;;5090760;27;19927;-60
2022/08/06 06:12:52;;;;;;;;;;;14.10;99.30;;;;;;5079100;28;20445;-60
2022/08/06 06:15:18;;;;;;;;;;;14.40;98.60;;;;;;5088168;28;19928;-61
2022/08/06 06:18:02;;;;;;;;;;;14.60;98.30;;;;;;5089451;28;19969;-61
2022/08/06 06:20:28;;;;;;;;;;;14.80;98.00;;;;;;5082431;28;19924;-61
2022/08/06 06:22:53;;;;;;;;;;;15.00;97.40;;;;;;5087658;28;20287;-61
2022/08/06 06:25:31;;;;;;;;;;;15.30;97.30;;;;;;5087521;28;20635;-61
2022/08/06 06:28:11;;;;;;;;;;;15.50;96.80;;;;;;5080035;28;20046;-61
2022/08/06 06:30:37;;;;;;;;;;;15.80;96.40;;;;;;5080274;28;19923;-61
2022/08/06 06:33:15;;;;;;;;;;;16.00;96.10;;;;;;5086049;28;19977;-61
2022/08/06 06:35:58;;;;;;;;;;;16.30;95.70;;;;;;5082733;28;20360;-62
2022/08/06 06:38:32;;;;;;;;;;;16.60;95.30;;;;;;5080949;28;19920;-61
2022/08/06 06:41:05;;;;;;;;;;;16.90;94.80;;;;;;5087981;28;19924;-62
2022/08/06 06:43:48;;;;;;;;;;;17.00;94.40;;;;;;5086560;28;19965;-62
2022/08/06 06:46:22;;;;;;;;;;;17.30;93.80;;;;;;5089182;28;19920;-61
2022/08/06 06:48:50;;;;;;;;;;;17.50;92.40;;;;;;5083087;28;19968;-63
2022/08/06 06:51:20;;;;;;;;;;;17.80;92.00;;;;;;5083062;28;19932;-63
2022/08/06 06:53:48;;;;;;;;;;;17.80;90.60;;;;;;5084590;28;19928;-62
2022/08/06 06:56:15;;;;;;;;;;;18.10;89.90;;;;;;5105930;28;19928;-62
2022/08/06 06:58:53;;;;;;;;;;;18.20;87.90;;;;;;5088427;28;19931;-61
2022/08/06 07:01:19;;;;;;;;;;;18.40;86.70;;;;;;5080980;28;20010;-62
2022/08/06 07:03:46;;;;;;;;;;;18.60;85.70;;;;;;5080083;28;19928;-61
2022/08/06 07:06:12;;;;;;;;;;;18.70;81.50;;;;;;5081051;28;20402;-62
2022/08/06 07:08:44;;;;;;;;;;;19.00;84.80;;;;;;5070874;28;19920;-62
2022/08/06 07:11:10;;;;;;;;;;;19.30;81.90;;;;;;5091008;28;19971;-62
2022/08/06 07:13:36;;;;;;;;;;;19.50;82.70;;;;;;5082655;28;19924;-61
2022/08/06 07:16:03;;;;;;;;;;;19.60;78.20;;;;;;5089661;28;19924;-62
2022/08/06 07:18:29;;;;;;;;;;;19.60;78.50;;;;;;5088415;28;20281;-62
2022/08/06 07:20:54;;;;;;;;;;;19.80;78.20;;;;;;5080879;28;19939;-63
2022/08/06 07:23:22;;;;;;;;;;;19.90;78.20;;;;;;5088406;28;19965;-61
2022/08/06 07:25:48;;;;;;;;;;;20.20;80.10;;;;;;5082735;28;19927;-62
2022/08/06 07:28:14;;;;;;;;;;;20.40;74.70;;;;;;5090436;28;19920;-61
2022/08/06 07:30:40;;;;;;;;;;;20.50;75.70;;;;;;5090235;28;19965;-62
2022/08/06 07:33:07;;;;;;;;;;;20.80;75.20;;;;;;5091532;28;19931;-62
2022/08/06 07:35:32;;;;;;;;;;;20.70;71.90;;;;;;5079424;28;19940;-62
2022/08/06 07:38:02;;;;;;;;;;;20.80;72.80;;;;;;5088345;28;20261;-62
2022/08/06 07:40:30;;;;;;;;;;;20.90;74.50;;;;;;5090814;28;20002;-62
2022/08/06 07:42:59;;;;;;;;;;;20.80;71.40;;;;;;5091984;28;19924;-62
2022/08/06 07:45:27;;;;;;;;;;;21.20;72.40;;;;;;5088955;28;19977;-63
2022/08/06 07:47:54;;;;;;;;;;;21.40;69.30;;;;;;5088654;28;19920;-62
2022/08/06 07:50:20;;;;;;;;;;;21.40;69.70;;;;;;5082615;28;19971;-63
2022/08/06 07:52:46;;;;;;;;;;;21.50;70.60;;;;;;5085062;28;19959;-64
2022/08/06 07:55:12;;;;;;;;;;;21.90;69.30;;;;;;5083712;28;19928;-64
2022/08/06 07:57:39;;;;;;;;;;;22.20;67.20;;;;;;5086030;28;19920;-64
2022/08/06 08:00:05;;;;;;;;;;;22.10;64.50;;;;;;5084368;28;19973;-61
2022/08/06 08:02:30;;;;;;;;;;;22.20;64.80;;;;;;5090454;28;20333;-63
2022/08/06 08:07:41;;;;;;;;;;;22.60;59.20;;;;;;5103909;28;19920;-62
2022/08/06 08:10:06;;;;;;;;;;;22.50;63.70;;;;;;5088128;28;19920;-63
2022/08/06 08:12:33;;;;;;;;;;;22.40;63.40;;;;;;5093271;28;19920;-63
2022/08/06 08:14:59;;;;;;;;;;;22.20;63.50;;;;;;5080616;28;19927;-62
2022/08/06 08:17:24;;;;;;;;;;;22.30;65.10;;;;;;5076380;28;19924;-63
2022/08/06 08:19:50;;;;;;;;;;;22.70;63.00;;;;;;5084763;28;19924;-62
2022/08/06 08:22:16;;;;;;;;;;;22.20;63.30;;;;;;5092556;28;19928;-63
2022/08/06 08:24:43;;;;;;;;;;;22.00;63.70;;;;;;5094583;28;20021;-62
2022/08/06 08:27:10;;;;;;;;;;;21.90;64.80;;;;;;5088599;28;19953;-63
2022/08/06 08:29:36;;;;;;;;;;;22.40;64.40;;;;;;5093424;28;19920;-62
2022/08/06 08:32:02;;;;;;;;;;;22.50;63.80;;;;;;5083004;28;19927;-63
2022/08/06 08:34:28;;;;;;;;;;;22.50;62.10;;;;;;5072608;28;19923;-64
2022/08/06 08:36:53;;;;;;;;;;;23.20;61.80;;;;;;5094269;28;19977;-63
2022/08/06 08:39:19;;;;;;;;;;;23.80;60.80;;;;;;5093923;28;20572;-63
2022/08/06 08:42:00;;;;;;;;;;;23.50;60.50;;;;;;5091630;28;20003;-63
2022/08/06 08:44:27;;;;;;;;;;;23.20;61.10;;;;;;5092732;28;20366;-63
2022/08/06 08:46:57;;;;;;;;;;;22.70;61.10;;;;;;5125112;27;19962;-62
2022/08/06 08:49:37;;;;;;;;;;;22.40;58.50;;;;;;5091182;28;19967;-63
2022/08/06 08:52:03;;;;;;;;;;;22.90;59.10;;;;;;5087413;28;20245;-63
2022/08/06 08:54:31;;;;;;;;;;;23.80;56.40;;;;;;5094020;28;19927;-63
2022/08/06 08:56:57;;;;;;;;;;;24.60;57.00;;;;;;5092650;28;20019;-62
2022/08/06 08:59:23;;;;;;;;;;;25.20;56.80;;;;;;5090563;28;19932;-63
2022/08/06 09:01:49;;;;;;;;;;;26.20;53.00;;;;;;5084073;28;19928;-63
2022/08/06 09:04:14;;;;;;;;;;;26.10;49.00;;;;;;5091201;28;19994;-64
2022/08/06 09:06:41;;;;;;;;;;;26.20;50.80;;;;;;5092050;28;19927;-62
2022/08/06 09:09:07;;;;;;;;;;;25.90;51.40;;;;;;5094608;28;20295;-63
2022/08/06 09:11:33;;;;;;;;;;;25.30;52.60;;;;;;5090084;28;19935;-63
2022/08/06 09:14:00;;;;;;;;;;;24.60;53.40;;;;;;5084959;28;20373;-63
2022/08/06 09:16:26;;;;;;;;;;;24.10;53.20;;;;;;5090085;28;19924;-63
2022/08/06 09:18:53;;;;;;;;;;;23.50;55.00;;;;;;5093821;28;20280;-64
2022/08/06 09:21:18;;;;;;;;;;;23.00;55.20;;;;;;5091099;28;19999;-62
2022/08/06 09:23:44;;;;;;;;;;;22.80;56.70;;;;;;5090285;28;20007;-62
2022/08/06 09:26:09;;;;;;;;;;;22.40;57.40;;;;;;5088971;28;20276;-62
2022/08/06 09:28:36;;;;;;;;;;;22.20;58.40;;;;;;5091777;28;19935;-62
2022/08/06 09:31:02;;;;;;;;;;;22.10;59.30;;;;;;5092462;28;19924;-62
2022/08/06 09:33:29;;;;;;;;;;;22.20;59.30;;;;;;5092242;28;19946;-63
2022/08/06 09:35:59;;;;;;;;;;;22.20;58.50;;;;;;5088298;28;19928;-62
2022/08/06 09:38:24;;;;;;;;;;;22.40;58.80;;;;;;5092470;28;19920;-62
2022/08/06 09:41:07;;;;;;;;;;;22.10;57.40;;;;;;5091846;28;19924;-62
2022/08/06 09:43:33;;;;;;;;;;;22.10;57.40;;;;;;5093248;28;19928;-62
2022/08/06 09:45:58;;;;;;;;;;;22.10;57.80;;;;;;5093870;28;19927;-62
2022/08/06 09:48:23;;;;;;;;;;;22.30;57.30;;;;;;5093308;28;19920;-62
2022/08/06 09:50:49;;;;;;;;;;;22.50;55.00;;;;;;5088921;28;19924;-62
2022/08/06 09:53:16;;;;;;;;;;;22.80;54.70;;;;;;5094596;28;20286;-62
2022/08/06 09:55:41;;;;;;;;;;;23.60;52.30;;;;;;5093310;28;19928;-63
2022/08/06 09:58:07;;;;;;;;;;;24.70;51.60;;;;;;5089966;28;19931;-61
2022/08/06 10:00:34;;;;;;;;;;;24.80;50.50;;;;;;5092866;28;20294;-62
2022/08/06 10:03:01;;;;;;;;;;;25.20;50.90;;;;;;5097583;28;19962;-62
2022/08/06 10:05:27;;;;;;;;;;;25.00;50.30;;;;;;5094269;28;19930;-62
2022/08/06 10:08:02;;;;;;;;;;;24.40;49.40;;;;;;5094741;28;20283;-62
2022/08/06 10:10:39;;;;;;;;;;;24.00;51.40;;;;;;5094712;28;19929;-64
2022/08/06 10:13:15;;;;;;;;;;;23.40;53.80;;;;;;5093125;28;20065;-63
2022/08/06 10:15:43;;;;;;;;;;;23.00;55.60;;;;;;5091812;28;19955;-63
2022/08/06 10:18:08;;;;;;;;;;;22.70;56.90;;;;;;5093454;28;20311;-62
2022/08/06 10:20:34;;;;;;;;;;;22.40;57.90;;;;;;5093828;28;20041;-63
2022/08/06 10:23:00;;;;;;;;;;;22.30;58.70;;;;;;5093507;28;19920;-62
2022/08/06 10:25:29;;;;;;;;;;;22.20;59.10;;;;;;5093308;28;19928;-62
2022/08/06 10:27:55;;;;;;;;;;;22.20;59.30;;;;;;5085201;28;19946;-62
2022/08/06 10:30:20;;;;;;;;;;;22.40;59.40;;;;;;5092407;28;19928;-62
2022/08/06 10:32:53;;;;;;;;;;;23.10;59.20;;;;;;5091373;28;20305;-63
2022/08/06 10:35:20;;;;;;;;;;;24.10;57.60;;;;;;5089517;28;19924;-63
2022/08/06 10:37:49;;;;;;;;;;;25.00;55.50;;;;;;5085904;28;20020;-63
2022/08/06 10:40:15;;;;;;;;;;;26.40;54.10;;;;;;5088890;28;20022;-63
2022/08/06 10:42:40;;;;;;;;;;;26.70;52.30;;;;;;5083687;28;20011;-63
2022/08/06 10:45:08;;;;;;;;;;;26.40;51.70;;;;;;5086438;28;19973;-62
2022/08/06 10:47:33;;;;;;;;;;;26.20;51.60;;;;;;5088212;28;19974;-62
2022/08/06 10:50:00;;;;;;;;;;;26.00;51.50;;;;;;5086066;28;19923;-63
2022/08/06 10:52:26;;;;;;;;;;;25.60;52.10;;;;;;5082928;28;20007;-63
2022/08/06 10:54:51;;;;;;;;;;;25.50;52.40;;;;;;5088367;28;20011;-63
2022/08/06 10:57:17;;;;;;;;;;;25.30;51.30;;;;;;5089005;28;19931;-62
2022/08/06 10:59:43;;;;;;;;;;;25.20;51.90;;;;;;5088596;28;19924;-62
2022/08/06 11:02:11;;;;;;;;;;;25.30;51.70;;;;;;5085379;28;19923;-62
2022/08/06 11:04:37;;;;;;;;;;;25.20;50.40;;;;;;5088705;28;19982;-63
2022/08/06 11:07:12;;;;;;;;;;;24.70;50.90;;;;;;5086939;28;19941;-63
2022/08/06 11:09:56;;;;;;;;;;;24.40;50.40;;;;;;5085896;28;19963;-62
2022/08/06 11:12:21;;;;;;;;;;;24.20;51.30;;;;;;5089221;28;20274;-63
2022/08/06 11:14:47;;;;;;;;;;;24.40;50.90;;;;;;5090603;28;19931;-63
2022/08/06 11:17:12;;;;;;;;;;;24.10;51.60;;;;;;5089186;28;20440;-62
2022/08/06 11:19:39;;;;;;;;;;;24.10;50.00;;;;;;5119753;27;19928;-63
2022/08/06 11:22:04;;;;;;;;;;;24.10;50.70;;;;;;5088607;28;19924;-62
2022/08/06 11:24:30;;;;;;;;;;;24.10;50.90;;;;;;5088422;28;20023;-63
2022/08/06 11:26:56;;;;;;;;;;;24.00;50.80;;;;;;5085400;28;19931;-61
2022/08/06 11:29:21;;;;;;;;;;;24.00;51.50;;;;;;5086847;28;19928;-63
2022/08/06 11:31:48;;;;;;;;;;;24.00;51.90;;;;;;5086218;28;20968;-63
2022/08/06 11:34:15;;;;;;;;;;;23.90;51.90;;;;;;5118453;27;20353;-62
2022/08/06 11:36:46;;;;;;;;;;;24.00;52.60;;;;;;5087319;28;20011;-62
2022/08/06 11:39:12;;;;;;;;;;;24.00;51.80;;;;;;5088101;28;19928;-63
2022/08/06 11:41:46;;;;;;;;;;;24.00;52.20;;;;;;5090948;28;19927;-63
2022/08/06 11:44:15;;;;;;;;;;;24.10;52.70;;;;;;5091748;28;19920;-62
2022/08/06 11:46:41;;;;;;;;;;;24.10;52.70;;;;;;5088702;28;20417;-62
2022/08/06 11:49:15;;;;;;;;;;;24.30;52.50;;;;;;5089922;28;19924;-62
2022/08/06 11:51:47;;;;;;;;;;;24.30;52.10;;;;;;5087952;28;20383;-62
2022/08/06 11:54:12;;;;;;;;;;;24.30;52.30;;;;;;5091024;28;20341;-62
2022/08/06 11:56:58;;;;;;;;;;;24.10;51.60;;;;;;5090722;28;21246;-62
2022/08/06 11:59:23;;;;;;;;;;;24.20;52.10;;;;;;5090248;28;19928;-62
2022/08/06 12:01:49;;;;;;;;;;;24.10;51.50;;;;;;5123422;28;19985;-61
2022/08/06 12:04:33;;;;;;;;;;;24.10;51.80;;;;;;5089477;28;20315;-63
2022/08/06 12:07:22;;;;;;;;;;;24.20;51.90;;;;;;5086004;28;20394;-62
2022/08/06 12:10:06;;;;;;;;;;;24.20;50.90;;;;;;5071064;28;20416;-62
2022/08/06 12:12:48;;;;;;;;;;;24.30;49.60;;;;;;5109796;28;20323;-62
2022/08/06 12:15:16;;;;;;;;;;;24.50;51.50;;;;;;5090240;28;19977;-63
2022/08/06 12:17:57;;;;;;;;;;;24.70;50.50;;;;;;5089135;28;19927;-63
2022/08/06 12:20:30;;;;;;;;;;;24.80;49.70;;;;;;5080509;28;20650;-62
2022/08/06 12:22:56;;;;;;;;;;;24.70;49.80;;;;;;5091628;28;19942;-62
2022/08/06 12:25:28;;;;;;;;;;;24.30;49.80;;;;;;5090602;28;20001;-62
2022/08/06 12:27:55;;;;;;;;;;;24.40;50.20;;;;;;5089875;28;20360;-62
2022/08/06 12:30:21;;;;;;;;;;;24.60;49.30;;;;;;5089564;28;20337;-62
2022/08/06 12:32:47;;;;;;;;;;;24.90;48.70;;;;;;5093490;28;20027;-63
2022/08/06 12:35:12;;;;;;;;;;;24.90;49.40;;;;;;5087000;28;20615;-62
2022/08/06 12:37:39;;;;;;;;;;;24.80;48.50;;;;;;5088734;28;19970;-63
2022/08/06 12:40:29;;;;;;;;;;;24.70;49.70;;;;;;5090941;28;19928;-62
2022/08/06 12:43:09;;;;;;;;;;;24.50;50.20;;;;;;5071174;28;20007;-62
2022/08/06 12:45:34;;;;;;;;;;;24.20;48.50;;;;;;5083870;28;19927;-62
2022/08/06 12:48:01;;;;;;;;;;;23.80;47.50;;;;;;5088030;28;20387;-62
2022/08/06 12:50:27;;;;;;;;;;;23.60;49.10;;;;;;5082837;28;19932;-62
2022/08/06 12:53:04;;;;;;;;;;;23.50;50.30;;;;;;5085882;28;19977;-62
2022/08/06 12:55:43;;;;;;;;;;;23.40;50.40;;;;;;5087575;28;19977;-62
2022/08/06 12:58:09;;;;;;;;;;;23.40;51.10;;;;;;5121659;27;19928;-61
2022/08/06 13:00:36;;;;;;;;;;;23.40;50.00;;;;;;5092542;28;20297;-62
2022/08/06 13:03:03;;;;;;;;;;;23.40;50.00;;;;;;5094087;28;20339;-62
2022/08/06 13:05:28;;;;;;;;;;;23.80;50.00;;;;;;5124050;27;19970;-62
2022/08/06 13:07:55;;;;;;;;;;;23.90;50.40;;;;;;5091074;28;19953;-62
2022/08/06 13:10:20;;;;;;;;;;;24.20;50.30;;;;;;5091246;28;19956;-63
2022/08/06 13:12:53;;;;;;;;;;;24.70;48.60;;;;;;5090148;28;20343;-62
2022/08/06 13:15:18;;;;;;;;;;;26.80;47.60;;;;;;5091260;28;19924;-63
2022/08/06 13:17:59;;;;;;;;;;;27.70;44.30;;;;;;5095295;28;19927;-62
2022/08/06 13:20:34;;;;;;;;;;;29.90;44.50;;;;;;5089661;28;19928;-62
2022/08/06 13:23:00;;;;;;;;;;;31.00;41.10;;;;;;5092906;28;19970;-63
2022/08/06 13:25:25;;;;;;;;;;;31.80;39.60;;;;;;5080542;28;19920;-62
2022/08/06 13:28:06;;;;;;;;;;;32.40;35.50;;;;;;5087673;28;19967;-64
2022/08/06 13:30:32;;;;;;;;;;;33.80;36.40;;;;;;5093174;28;19932;-63
2022/08/06 13:33:10;;;;;;;;;;;34.60;35.30;;;;;;5091877;28;20007;-62
2022/08/06 13:35:35;;;;;;;;;;;35.70;33.60;;;;;;5090448;28;20076;-63
2022/08/06 13:38:01;;;;;;;;;;;36.60;33.00;;;;;;5091713;28;20367;-62
2022/08/06 13:40:36;;;;;;;;;;;34.80;31.00;;;;;;5086148;28;20291;-64
2022/08/06 13:43:02;;;;;;;;;;;33.00;31.60;;;;;;5086511;28;19930;-63
2022/08/06 13:45:28;;;;;;;;;;;31.40;33.30;;;;;;5086430;28;19920;-62
2022/08/06 13:48:05;;;;;;;;;;;29.90;34.90;;;;;;5085957;28;20018;-64
2022/08/06 13:50:39;;;;;;;;;;;28.70;36.00;;;;;;5086810;28;20011;-63
2022/08/06 13:53:05;;;;;;;;;;;27.90;38.00;;;;;;5090092;28;19920;-64
2022/08/06 13:55:31;;;;;;;;;;;30.10;38.20;;;;;;5091977;28;19948;-65
2022/08/06 13:57:57;;;;;;;;;;;31.90;37.20;;;;;;5089179;28;19973;-63
2022/08/06 14:00:23;;;;;;;;;;;32.90;33.80;;;;;;5091723;28;20006;-64
2022/08/06 14:02:49;;;;;;;;;;;33.80;34.40;;;;;;5090380;28;19920;-65
2022/08/06 14:05:14;;;;;;;;;;;35.10;33.50;;;;;;5089318;28;19921;-63
2022/08/06 14:07:41;;;;;;;;;;;35.90;32.20;;;;;;5089386;28;19973;-64
2022/08/06 14:10:07;;;;;;;;;;;36.70;31.80;;;;;;5090776;28;19920;-63
2022/08/06 14:12:32;;;;;;;;;;;36.30;31.00;;;;;;5088092;28;19924;-64
2022/08/06 14:14:58;;;;;;;;;;;36.50;31.10;;;;;;5088679;28;20363;-63
2022/08/06 14:17:23;;;;;;;;;;;36.90;31.00;;;;;;5121099;27;19967;-65
2022/08/06 14:19:49;;;;;;;;;;;37.40;30.80;;;;;;5091183;28;19971;-63
2022/08/06 14:22:15;;;;;;;;;;;36.70;29.50;;;;;;5089107;28;19974;-63
2022/08/06 14:24:41;;;;;;;;;;;36.50;29.60;;;;;;5085941;28;20391;-63